Have a Safe July 4th! 

Flight Track Log - Related Links

Times and Time Zones

All times are in EDT time to prevent confusion due to time zone crossing. See the AAL2145 flight status page for this flight to view local times or setup timezone preferences in your user account.

Time Position Orientation Groundspeed Altitude Reporting Facility
EDT Latitude Longitude Course Direction KTS MPH feet Rate Location/Type
Sat 07:50:34 PM 25.7942 -80.2650 207° Southwest 159 183 1,000  Level Miami Center
Sat 07:51:22 PM 25.7786 -80.2208 111° Southeast 209 241 2,100 1,677 Climbing Miami Center
Sat 07:52:00 PM 25.6457 -80.1938 204° Southwest  Level FlightAware Approximate
Sat 07:52:07 PM 25.7439 -80.1853 137° Southeast 262 302 3,600  Level Miami Center
Sat 07:53:00 PM 25.5444 -80.2618 209° Southwest  Level FlightAware Approximate
Sat 07:53:07 PM 25.6728 -80.1811 177° South 269 310 5,900  Level Miami Center
Sat 07:54:00 PM 25.4408 -80.3266 209° Southwest  Level FlightAware Approximate
Sat 07:54:07 PM 25.5931 -80.1950 189° South 292 336 8,800  Level Miami Center
Sat 07:55:00 PM 25.3370 -80.3908 207° Southwest  Level FlightAware Approximate
Sat 07:55:07 PM 25.5211 -80.2367 208° Southwest 338 389 11,200  Level Miami Center
Sat 07:56:07 PM 25.4450 -80.2831 209° Southwest 348 400 14,200 2,950 Climbing Miami Center
Sat 07:57:07 PM 25.3581 -80.3403 211° Southwest 353 406 17,100 2,850 Climbing Miami Center
Sat 07:58:07 PM 25.2667 -80.3972 209° Southwest 366 421 19,900 2,650 Climbing Miami Center
Sat 07:59:07 PM 25.1756 -80.4589 211° Southwest 377 434 22,400 2,400 Climbing Miami Center
Sat 08:00:07 PM 25.0778 -80.5225 211° Southwest 397 457 24,700 2,050 Climbing Miami Center
Sat 08:01:07 PM 24.9781 -80.5861 210° Southwest 408 470 26,500 1,800 Climbing Miami Center
Sat 08:02:07 PM 24.8758 -80.6564 212° Southwest 422 486 28,300 1,700 Climbing Miami Center
Sat 08:03:07 PM 24.7697 -80.7217 209° Southwest 435 501 29,900 1,450 Climbing Miami Center
Sat 08:04:07 PM 24.6614 -80.7936 211° Southwest 447 514 31,200 1,250 Climbing Miami Center
Sat 08:05:07 PM 24.5486 -80.8678 211° Southwest 460 529 32,400 1,450 Climbing Miami Center
Sat 08:06:07 PM 24.4342 -80.9372 209° Southwest 471 542 34,100 1,300 Climbing Miami Center
Sat 08:07:07 PM 24.3211 -81.0131 211° Southwest 476 548 35,000 400 Climbing Miami Center
Sat 08:08:07 PM 24.2086 -81.0844 210° Southwest 476 548 34,900  Descending Miami Center
Sat 08:09:07 PM 24.0936 -81.1558 210° Southwest 476 548 35,000  Climbing Miami Center
Sat 08:10:07 PM 23.9850 -81.2294 212° Southwest 476 548 34,900 -100 Descending Miami Center
Sat 08:12:00 PM 23.8052 -81.3699 216° Southwest  Level FlightAware Approximate
Sat 08:19:00 PM 23.1402 -81.8950 216° Southwest  Level FlightAware Approximate
Sat 08:20:00 PM 23.0453 -81.9699 216° Southwest  Level FlightAware Approximate
Sat 08:21:00 PM 22.9503 -82.0448 216° Southwest  Level FlightAware Approximate
Sat 08:22:00 PM 22.8554 -82.1195 216° Southwest  Level FlightAware Approximate
Sat 08:23:00 PM 22.7603 -82.1941 216° Southwest  Level FlightAware Approximate
Sat 08:24:00 PM 22.6653 -82.2687 216° Southwest  Level FlightAware Approximate
Sat 08:25:00 PM 22.5702 -82.3431 216° Southwest  Level FlightAware Approximate
Sat 08:26:00 PM 22.4751 -82.4174 216° Southwest  Level FlightAware Approximate
Sat 08:27:00 PM 22.3808 -82.4928 217° Southwest  Level FlightAware Approximate
Sat 08:28:00 PM 22.2870 -82.5690 217° Southwest  Level FlightAware Approximate
Sat 08:29:00 PM 22.1932 -82.6451 217° Southwest  Level FlightAware Approximate
Sat 08:30:00 PM 22.0994 -82.7211 217° Southwest  Level FlightAware Approximate
Sat 08:31:00 PM 22.0055 -82.7970 217° Southwest  Level FlightAware Approximate
Sat 08:32:00 PM 21.9116 -82.8728 217° Southwest  Level FlightAware Approximate
Sat 08:33:00 PM 21.8177 -82.9485 217° Southwest  Level FlightAware Approximate
Sat 08:34:00 PM 21.7237 -83.0241 217° Southwest  Level FlightAware Approximate
Sat 08:35:00 PM 21.6294 -83.0992 216° Southwest  Level FlightAware Approximate
Sat 08:36:00 PM 21.5341 -83.1727 216° Southwest  Level FlightAware Approximate
Sat 08:37:00 PM 21.4387 -83.2461 216° Southwest  Level FlightAware Approximate
Sat 08:38:00 PM 21.3433 -83.3194 216° Southwest  Level FlightAware Approximate
Sat 08:39:00 PM 21.2479 -83.3926 216° Southwest  Level FlightAware Approximate
Sat 08:40:00 PM 21.1524 -83.4657 216° Southwest  Level FlightAware Approximate
Sat 08:41:00 PM 21.0569 -83.5387 216° Southwest  Level FlightAware Approximate
Sat 08:42:00 PM 20.9613 -83.6116 215° Southwest  Level FlightAware Approximate
Sat 08:43:00 PM 20.8658 -83.6845 215° Southwest  Level FlightAware Approximate
Sat 08:44:00 PM 20.7702 -83.7572 215° Southwest  Level FlightAware Approximate
Sat 08:45:00 PM 20.6746 -83.8298 215° Southwest  Level FlightAware Approximate
Sat 08:46:00 PM 20.5789 -83.9024 215° Southwest  Level FlightAware Approximate
Sat 08:47:00 PM 20.4832 -83.9749 215° Southwest  Level FlightAware Approximate
Sat 08:48:00 PM 20.3910 -84.0520 218° Southwest  Level FlightAware Approximate
Sat 08:49:00 PM 20.2967 -84.1262 214° Southwest  Level FlightAware Approximate
Sat 08:50:00 PM 20.1996 -84.1964 216° Southwest  Level FlightAware Approximate
Sat 08:51:00 PM 20.1041 -84.2690 216° Southwest  Level FlightAware Approximate
Sat 08:52:00 PM 20.0087 -84.3416 216° Southwest  Level FlightAware Approximate
Sat 08:53:00 PM 19.9132 -84.4141 216° Southwest  Level FlightAware Approximate
Sat 08:54:00 PM 19.8177 -84.4865 215° Southwest  Level FlightAware Approximate
Sat 08:55:00 PM 19.7221 -84.5588 215° Southwest  Level FlightAware Approximate
Sat 08:56:00 PM 19.6265 -84.6310 215° Southwest  Level FlightAware Approximate
Sat 08:57:00 PM 19.5309 -84.7031 215° Southwest  Level FlightAware Approximate
Sat 08:58:00 PM 19.4353 -84.7752 215° Southwest  Level FlightAware Approximate
Sat 08:59:00 PM 19.3396 -84.8471 215° Southwest  Level FlightAware Approximate
Sat 09:00:00 PM 19.2439 -84.9190 215° Southwest  Level FlightAware Approximate
Sat 09:01:00 PM 19.1482 -84.9908 215° Southwest  Level FlightAware Approximate
Sat 09:02:00 PM 19.0525 -85.0625 215° Southwest  Level FlightAware Approximate
Sat 09:03:00 PM 18.9567 -85.1341 215° Southwest  Level FlightAware Approximate
Sat 09:04:00 PM 18.8609 -85.2057 215° Southwest  Level FlightAware Approximate
Sat 09:05:00 PM 18.7650 -85.2772 215° Southwest  Level FlightAware Approximate
Sat 09:06:00 PM 18.6692 -85.3485 215° Southwest  Level FlightAware Approximate
Sat 09:07:00 PM 18.5732 -85.4197 215° Southwest  Level FlightAware Approximate
Sat 09:08:00 PM 18.4768 -85.4903 215° Southwest  Level FlightAware Approximate
Sat 09:09:00 PM 18.3804 -85.5608 215° Southwest  Level FlightAware Approximate
Sat 09:10:00 PM 18.2841 -85.6312 215° Southwest  Level FlightAware Approximate
Sat 09:11:00 PM 18.1876 -85.7015 215° Southwest  Level FlightAware Approximate
Sat 09:12:00 PM 18.0912 -85.7718 215° Southwest  Level FlightAware Approximate
Sat 09:13:00 PM 17.9947 -85.8420 215° Southwest  Level FlightAware Approximate
Sat 09:14:00 PM 17.8982 -85.9121 215° Southwest  Level FlightAware Approximate
Sat 09:15:00 PM 17.8017 -85.9821 215° Southwest  Level FlightAware Approximate
Sat 09:16:00 PM 17.7052 -86.0521 215° Southwest  Level FlightAware Approximate
Sat 09:17:00 PM 17.6086 -86.1220 215° Southwest  Level FlightAware Approximate
Sat 09:18:00 PM 17.5101 -86.1932 215° Southwest  Level FlightAware Approximate
Sat 09:19:00 PM 17.4115 -86.2643 215° Southwest  Level FlightAware Approximate
Sat 09:20:00 PM 17.3129 -86.3354 215° Southwest  Level FlightAware Approximate
Sat 09:21:00 PM 17.2143 -86.4064 215° Southwest  Level FlightAware Approximate
Sat 09:22:00 PM 17.1218 -86.4857 220° Southwest  Level FlightAware Approximate
Sat 09:23:00 PM 17.0302 -86.5663 220° Southwest  Level FlightAware Approximate
Sat 09:24:00 PM 16.9387 -86.6469 220° Southwest  Level FlightAware Approximate
Sat 09:25:00 PM 16.8471 -86.7274 220° Southwest  Level FlightAware Approximate
Sat 09:26:00 PM 16.7553 -86.8075 219° Southwest  Level FlightAware Approximate
Sat 09:27:00 PM 16.6629 -86.8869 219° Southwest  Level FlightAware Approximate
Sat 09:28:00 PM 16.5705 -86.9663 219° Southwest  Level FlightAware Approximate
Sat 09:29:00 PM 16.4780 -87.0455 219° Southwest  Level FlightAware Approximate
Sat 09:30:00 PM 16.3855 -87.1247 219° Southwest  Level FlightAware Approximate
Sat 09:31:00 PM 16.2931 -87.2038 219° Southwest  Level FlightAware Approximate
Sat 09:32:00 PM 16.2005 -87.2829 219° Southwest  Level FlightAware Approximate
Sat 09:33:00 PM 16.1080 -87.3619 219° Southwest  Level FlightAware Approximate
Sat 09:34:00 PM 16.0154 -87.4408 219° Southwest  Level FlightAware Approximate
Sat 09:35:00 PM 15.9221 -87.5202 219° Southwest  Level FlightAware Approximate
Sat 09:36:00 PM 15.8287 -87.5995 219° Southwest  Level FlightAware Approximate
Sat 09:37:00 PM 15.7353 -87.6788 219° Southwest  Level FlightAware Approximate
Sat 09:38:00 PM 15.6419 -87.7580 219° Southwest  Level FlightAware Approximate
Sat 09:39:00 PM 15.5485 -87.8372 219° Southwest  Level FlightAware Approximate
Sat 09:40:00 PM 15.4602 -87.9183 250° West  Level FlightAware Approximate
Sat 09:41:00 PM 15.4188 -88.0358 250° West  Level FlightAware Approximate
Sat 09:42:00 PM 15.3773 -88.1533 250° West  Level FlightAware Approximate
Sat 09:43:00 PM 15.3386 -88.2717 252° West  Level FlightAware Approximate
Sat 09:44:00 PM 15.3008 -88.3905 252° West  Level FlightAware Approximate
Sat 09:45:00 PM 15.2630 -88.5092 252° West  Level FlightAware Approximate
Sat 09:46:00 PM 15.2150 -88.6233 255° West  Level FlightAware Approximate
Sat 09:47:00 PM 15.1764 -88.7411 254° West  Level FlightAware Approximate
Sat 09:48:00 PM 15.1410 -88.8605 251° West  Level FlightAware Approximate
Sat 09:49:00 PM 15.1016 -88.9786 251° West  Level FlightAware Approximate
Sat 09:50:00 PM 15.0599 -89.0957 250° West  Level FlightAware Approximate
Sat 09:51:00 PM 15.0180 -89.2129 250° West  Level FlightAware Approximate
Sat 09:52:00 PM 14.9925 -89.3329 249° West  Level FlightAware Approximate
Sat 09:53:00 PM 14.9498 -89.4496 249° West  Level FlightAware Approximate
Sat 09:54:00 PM 14.9070 -89.5663 249° West  Level FlightAware Approximate
Sat 09:55:00 PM 14.8641 -89.6829 249° West  Level FlightAware Approximate
Sat 09:56:00 PM 14.8237 -89.8004 254° West  Level FlightAware Approximate
Sat 09:57:00 PM 14.7879 -89.9195 251° West  Level FlightAware Approximate
Sat 09:58:00 PM 14.7487 -90.0374 251° West  Level FlightAware Approximate
Sat 09:59:00 PM 14.7081 -90.1548 248° West  Level FlightAware Approximate
Sat 10:00:00 PM 14.6620 -90.2700 248° West  Level FlightAware Approximate
Sat 10:01:00 PM 14.6311 -90.3888 248° West  Level FlightAware Approximate
Sat 10:02:00 PM 14.5873 -90.5049 251° West  Level FlightAware Approximate
Sat 10:03:00 PM 14.5667 -90.5167 180° South  Level FlightAware Approximate
Sat 10:04:00 PM 14.5833 -90.5275 180° South  Level Estimated

Login

Don't have an account? Register now (free) for customized features, flight alerts, and more!